| Date | Time | Temp. (oF) | Dew Point (oF) | Rel. Hum. (%) | Press. (in.) | Wind Dir. | Wind Speed (mph) | Hourly Rainfall (in.) |
|
|---|---|---|---|---|---|---|---|---|---|
| 1 | 01/02 | 00:00 | 42 | 31 | 65 | 29.82 | W | 6 | 0.00 |
| 2 | 01/01 | 23:00 | 44 | 31 | 62 | 29.80 | W | 9 | 0.00 |
| 3 | 01/01 | 22:00 | 46 | 39 | 77 | 29.79 | WNW | 7 | 0.00 |
| 4 | 01/01 | 21:00 | 47 | 46 | 100 | 29.77 | WSW | 1 | 0.00 |
| 5 | 01/01 | 20:00 | 47 | 46 | 100 | 29.77 | SW | 6 | 0.02 |
| 6 | 01/01 | 19:00 | 48 | 44 | 88 | 29.73 | WSW | 8 | 0.00 |
| 7 | 01/01 | 18:00 | 48 | 44 | 87 | 29.71 | SSW | 14 | 0.00 |
| 8 | 01/01 | 17:00 | 48 | 43 | 85 | 29.79 | SW | 8 | 0.00 |
| 9 | 01/01 | 16:00 | 49 | 43 | 82 | 29.79 | WSW | 8 | 0.00 |
| 10 | 01/01 | 15:00 | 47 | 43 | 89 | 29.78 | S | 6 | 0.01 |
| 11 | 01/01 | 14:00 | 50 | 40 | 70 | 29.84 | SSW | 15 | 0.00 |
| 12 | 01/01 | 13:00 | 50 | 40 | 69 | 29.90 | SSW | 18 | 0.00 |
| 13 | 01/01 | 12:00 | 49 | 41 | 74 | 29.97 | SSW | 10 | 0.00 |
| 14 | 01/01 | 11:00 | 47 | 40 | 79 | 30.04 | SSW | 11 | 0.00 |
| 15 | 01/01 | 10:00 | 43 | 41 | 93 | 30.09 | SSW | 2 | 0.00 |
| 16 | 01/01 | 09:00 | 35 | 35 | 100 | 30.10 | SE | 0 | 0.00 |
| 17 | 01/01 | 08:00 | 29 | 28 | 100 | 30.12 | N | 0 | 0.00 |
| 18 | 01/01 | 07:00 | 29 | 28 | 100 | 30.13 | NNE | 0 | 0.00 |
| 19 | 01/01 | 06:00 | 31 | 31 | 100 | 30.13 | SSE | 0 | 0.00 |
| 20 | 01/01 | 05:00 | 31 | 31 | 100 | 30.12 | SW | 1 | 0.00 |
| 21 | 01/01 | 04:00 | 34 | 33 | 100 | 30.13 | SW | 0 | 0.00 |
| 22 | 01/01 | 03:00 | 34 | 33 | 100 | 30.13 | WSW | 0 | 0.00 |
| 23 | 01/01 | 02:00 | 35 | 35 | 100 | 30.12 | S | 0 | 0.00 |
| 24 | 01/01 | 01:00 | 38 | 37 | 98 | 30.11 | NE | 0 | 0.00 |